Overview Statistics Trail Chart Weather Telemetry Raw packets
 

This is the latest recevied weather packets stored in our database for station/object CE1JFB-10. If no packets are shown the sender has not sent any weather packets the latest 10 day(s).

<< 3 4 5 6 7 8 9 >>
Time Temp. Humidity Pressure Rain* Wind** Luminosity Snow
1777710702 22.22° C 58% 1011.5 hPa - - - -
1777707102 22.22° C 57% 1011.7 hPa - - - -
1777703501 22.78° C 58% 1012.2 hPa - - - -
1777703487 22.78° C 57% 1012.3 hPa - - - -
1777699887 22.78° C 57% 1012.8 hPa - - - -
1777696287 22.78° C 55% 1013.2 hPa - - - -
1777692687 23.33° C 53% 1013.4 hPa - - - -
1777689087 24.44° C 50% 1013.6 hPa - - - -
1777685486 24.44° C 50% 1013.5 hPa - - - -
1777681886 24.44° C 51% 1012.9 hPa - - - -
1777678286 24.44° C 50% 1012.5 hPa - - - -
1777674686 24.44° C 50% 1012.6 hPa - - - -
1777671086 24.44° C 51% 1012.1 hPa - - - -
1777667486 25° C 49% 1011.5 hPa - - - -
1777663886 25.56° C 48% 1011.3 hPa - - - -
1777660286 26.11° C 49% 1011.3 hPa - - - -
1777656686 24.44° C 51% 1011.5 hPa - - - -
1777653086 25.56° C 49% 1012.5 hPa - - - -
1777649485 25.56° C 50% 1013.2 hPa - - - -
1777645885 23.89° C 53% 1013.6 hPa - - - -
1777642285 23.89° C 54% 1013.4 hPa - - - -
1777638685 22.22° C 57% 1013.2 hPa - - - -
1777635085 21.67° C 58% 1013 hPa - - - -
1777631485 21.67° C 58% 1012.7 hPa - - - -
1777627885 21.67° C 60% 1012.6 hPa - - - -

* Rain since midnight (hover to see other rain measurements)
** Current wind speed in m/s (hover to see current wind gust speed)